Time;durP1;ratioP1;P1;durP2;ratioP2;P2;SDS_P1;SDS_P2;PMS_P1;PMS_P2;Temp;Humidity;BMP_temperature;BMP_pressure;BME280_temperature;BME280_humidity;BME280_pressure;Samples;Min_cycle;Max_cycle;Signal;HPM_P1;HPM_P2
2021/06/24 00:01:10;;;;;;;15.73;11.90;;;18.90;99.90;;;;;;5049959;28;20118;-69
2021/06/24 00:03:38;;;;;;;15.30;11.07;;;18.80;99.90;;;;;;5051378;28;20044;-69
2021/06/24 00:06:07;;;;;;;17.38;13.68;;;18.80;99.90;;;;;;5051382;28;20538;-69
2021/06/24 00:08:35;;;;;;;14.75;11.88;;;18.80;99.90;;;;;;5042689;28;20045;-69
2021/06/24 00:11:05;;;;;;;15.30;12.80;;;18.80;99.90;;;;;;5044113;28;20064;-69
2021/06/24 00:13:33;;;;;;;16.27;11.80;;;18.80;99.90;;;;;;5049503;28;20425;-69
2021/06/24 00:16:01;;;;;;;15.07;12.35;;;18.90;99.90;;;;;;5045527;28;20073;-69
2021/06/24 00:18:28;;;;;;;15.90;12.70;;;18.90;99.90;;;;;;5063456;28;20447;-69
2021/06/24 00:20:56;;;;;;;17.55;12.55;;;18.90;99.90;;;;;;5050057;28;20041;-69
2021/06/24 00:23:24;;;;;;;16.73;13.38;;;18.90;99.90;;;;;;5042344;28;20092;-69
2021/06/24 00:25:56;;;;;;;14.15;12.15;;;18.90;99.90;;;;;;5051046;28;20138;-69
2021/06/24 00:28:27;;;;;;;15.20;11.65;;;18.90;99.90;;;;;;5041618;28;20061;-68
2021/06/24 00:30:57;;;;;;;15.20;12.43;;;18.90;99.90;;;;;;5048054;28;20442;-68
2021/06/24 00:33:41;;;;;;;14.57;12.45;;;19.00;99.90;;;;;;5041768;28;20060;-68
2021/06/24 00:36:08;;;;;;;17.90;13.38;;;18.90;99.90;;;;;;5048167;28;20045;-68
2021/06/24 00:38:36;;;;;;;15.98;12.55;;;18.90;99.90;;;;;;5048734;28;20124;-68
2021/06/24 00:41:04;;;;;;;15.23;13.15;;;18.90;99.90;;;;;;5048695;28;20048;-68
2021/06/24 00:43:33;;;;;;;16.55;12.68;;;18.90;99.90;;;;;;5049905;28;20057;-68
2021/06/24 00:46:00;;;;;;;15.35;12.68;;;18.90;99.90;;;;;;5049543;28;20458;-68
2021/06/24 00:48:28;;;;;;;15.05;12.38;;;18.80;99.90;;;;;;5049268;28;20072;-68
2021/06/24 00:50:55;;;;;;;15.55;12.13;;;18.80;99.90;;;;;;5049084;28;20081;-68
2021/06/24 00:53:23;;;;;;;17.13;12.65;;;18.80;99.90;;;;;;5049723;28;20087;-69
2021/06/24 00:55:51;;;;;;;18.90;12.35;;;18.80;99.90;;;;;;5047965;28;20156;-68
2021/06/24 00:58:25;;;;;;;15.88;12.88;;;18.80;99.90;;;;;;5050479;28;20049;-68
2021/06/24 01:00:56;;;;;;;13.40;11.80;;;18.80;99.90;;;;;;5031576;28;20098;-68
2021/06/24 01:03:25;;;;;;;15.25;12.82;;;18.80;99.90;;;;;;5048905;28;20167;-69
2021/06/24 01:05:53;;;;;;;15.70;13.60;;;18.80;99.90;;;;;;5044888;28;20131;-68
2021/06/24 01:08:27;;;;;;;16.65;14.15;;;18.80;99.90;;;;;;5043546;28;20053;-68
2021/06/24 01:10:59;;;;;;;17.65;14.98;;;18.80;99.90;;;;;;5041760;28;20052;-68
2021/06/24 01:13:27;;;;;;;18.10;16.00;;;18.80;99.90;;;;;;5048965;28;20056;-68
2021/06/24 01:15:55;;;;;;;16.63;13.98;;;18.80;99.90;;;;;;5048910;28;20055;-68
2021/06/24 01:18:23;;;;;;;16.77;14.90;;;18.80;99.90;;;;;;5048172;28;20128;-68
2021/06/24 01:20:51;;;;;;;19.05;14.23;;;18.70;99.90;;;;;;5048638;28;20049;-69
2021/06/24 01:23:18;;;;;;;17.33;13.52;;;18.70;99.90;;;;;;5045759;28;20056;-68
2021/06/24 01:25:46;;;;;;;16.95;14.45;;;18.70;99.90;;;;;;5049925;28;20075;-68
2021/06/24 01:28:15;;;;;;;14.57;12.82;;;18.70;99.90;;;;;;5050304;28;20052;-68
2021/06/24 01:30:43;;;;;;;16.98;14.18;;;18.70;99.90;;;;;;5054656;28;20059;-69
2021/06/24 01:33:12;;;;;;;18.63;14.73;;;18.70;99.90;;;;;;5047696;28;20049;-68
2021/06/24 01:35:40;;;;;;;18.75;16.45;;;18.70;99.90;;;;;;5062756;28;20403;-68
2021/06/24 01:38:10;;;;;;;16.60;14.73;;;18.70;99.90;;;;;;5045132;28;20053;-68
2021/06/24 01:40:50;;;;;;;17.30;13.85;;;18.70;99.90;;;;;;5047444;28;20049;-68
2021/06/24 01:43:17;;;;;;;18.63;15.60;;;18.70;99.90;;;;;;5048546;28;20083;-68
2021/06/24 01:45:48;;;;;;;21.08;15.98;;;18.60;99.90;;;;;;5048626;28;20063;-68
2021/06/24 01:48:16;;;;;;;15.35;13.52;;;18.60;99.90;;;;;;5054615;28;20057;-68
2021/06/24 01:50:44;;;;;;;17.05;14.88;;;18.60;99.90;;;;;;5065275;28;20083;-69
2021/06/24 01:53:12;;;;;;;18.60;14.07;;;18.60;99.90;;;;;;5065213;28;20435;-68
2021/06/24 01:55:41;;;;;;;17.42;13.43;;;18.60;99.90;;;;;;5049309;28;20416;-68
2021/06/24 01:58:24;;;;;;;15.95;13.38;;;18.60;99.90;;;;;;5050490;28;20434;-68
2021/06/24 02:01:05;;;;;;;;;;;18.70;99.90;;;;;;5058966;28;20480;-68
2021/06/24 02:03:39;;;;;;;21.23;15.93;;;18.70;99.90;;;;;;5048658;28;19921;-68
2021/06/24 02:06:08;;;;;;;17.10;13.50;;;18.70;99.90;;;;;;5044988;28;20055;-68
2021/06/24 02:08:37;;;;;;;16.35;12.68;;;18.70;99.90;;;;;;5044690;28;20600;-68
2021/06/24 02:11:23;;;;;;;20.15;15.43;;;18.70;99.90;;;;;;5049960;28;20049;-69
2021/06/24 02:13:57;;;;;;;19.50;15.38;;;18.80;99.90;;;;;;5049945;28;20400;-68
2021/06/24 02:16:26;;;;;;;16.95;13.13;;;18.80;99.90;;;;;;5048171;28;20151;-69
2021/06/24 02:18:54;;;;;;;16.00;13.57;;;18.80;99.90;;;;;;5048509;28;20049;-68
2021/06/24 02:21:41;;;;;;;20.80;14.23;;;18.80;99.90;;;;;;5048046;28;20476;-68
2021/06/24 02:24:10;;;;;;;18.70;13.43;;;18.80;99.90;;;;;;5032504;28;20045;-68
2021/06/24 02:26:47;;;;;;;17.70;13.75;;;18.80;99.90;;;;;;5041120;28;20049;-68
2021/06/24 02:29:34;;;;;;;17.85;13.85;;;18.80;99.90;;;;;;5040121;28;20052;-68
2021/06/24 02:32:03;;;;;;;16.17;13.43;;;18.80;99.90;;;;;;5032284;28;20045;-68
2021/06/24 02:34:46;;;;;;;17.17;13.90;;;18.80;99.90;;;;;;5049330;28;20048;-68
2021/06/24 02:37:25;;;;;;;20.85;16.75;;;18.80;99.90;;;;;;5051960;28;20044;-68
2021/06/24 02:40:13;;;;;;;15.93;13.15;;;18.80;99.90;;;;;;5052012;28;20044;-68
2021/06/24 02:42:42;;;;;;;18.80;14.95;;;18.80;99.90;;;;;;5051884;28;20049;-68
2021/06/24 02:45:11;;;;;;;19.73;15.45;;;18.80;99.90;;;;;;5052263;28;20494;-68
2021/06/24 02:47:39;;;;;;;16.70;14.18;;;18.80;99.90;;;;;;5051285;28;20056;-68
2021/06/24 02:50:10;;;;;;;18.90;15.95;;;18.80;99.90;;;;;;5051558;28;20048;-68
2021/06/24 02:52:38;;;;;;;19.80;15.70;;;18.80;99.90;;;;;;5051780;28;20054;-68
2021/06/24 02:55:07;;;;;;;17.48;14.68;;;18.80;99.90;;;;;;5051646;28;20132;-68
2021/06/24 02:57:47;;;;;;;20.25;14.50;;;18.80;99.90;;;;;;5051255;28;20060;-68
2021/06/24 03:00:40;;;;;;;15.55;13.43;;;18.80;99.90;;;;;;5043673;28;20530;-68
2021/06/24 03:03:26;;;;;;;15.48;13.25;;;18.80;99.90;;;;;;5052377;28;20135;-68
2021/06/24 03:06:03;;;;;;;17.05;13.75;;;18.90;99.90;;;;;;5051491;28;20099;-68
2021/06/24 03:08:30;;;;;;;16.70;14.48;;;18.80;99.90;;;;;;5052360;28;20048;-68
2021/06/24 03:11:01;;;;;;;18.40;14.77;;;18.90;99.90;;;;;;5068007;28;20080;-68
2021/06/24 03:13:31;;;;;;;21.02;14.38;;;18.90;99.90;;;;;;5052348;28;20287;-68
2021/06/24 03:16:03;;;;;;;15.40;13.50;;;18.90;99.90;;;;;;5051248;28;20041;-68
2021/06/24 03:18:31;;;;;;;15.43;13.35;;;18.90;99.90;;;;;;5051163;28;20178;-68
2021/06/24 03:21:01;;;;;;;20.00;15.57;;;18.90;99.90;;;;;;5050948;28;20041;-69
2021/06/24 03:23:29;;;;;;;16.70;12.95;;;18.90;99.90;;;;;;5050266;28;20504;-68
2021/06/24 03:25:57;;;;;;;17.00;13.82;;;18.90;99.90;;;;;;5048630;28;20044;-68
2021/06/24 03:28:24;;;;;;;17.83;13.27;;;18.90;99.90;;;;;;5062702;28;20136;-68
2021/06/24 03:31:04;;;;;;;16.88;13.40;;;18.90;99.90;;;;;;5043531;28;20127;-68
2021/06/24 03:33:35;;;;;;;18.92;15.45;;;18.90;99.90;;;;;;5067767;28;20064;-68
2021/06/24 03:36:03;;;;;;;20.13;14.90;;;19.00;99.90;;;;;;5049223;28;20423;-68
2021/06/24 03:38:31;;;;;;;18.90;15.68;;;19.00;99.90;;;;;;5034156;28;20063;-68
2021/06/24 03:40:59;;;;;;;17.83;14.50;;;19.00;99.90;;;;;;5048641;28;20447;-68
2021/06/24 03:43:27;;;;;;;20.65;16.50;;;19.00;99.90;;;;;;5066286;28;20045;-68
2021/06/24 03:45:56;;;;;;;18.02;14.40;;;19.00;99.90;;;;;;5051956;28;20379;-68
2021/06/24 03:48:28;;;;;;;20.33;15.52;;;19.10;99.90;;;;;;5033147;28;20132;-68
2021/06/24 03:51:08;;;;;;;19.42;15.20;;;19.10;99.90;;;;;;5048345;28;20061;-68
2021/06/24 03:53:36;;;;;;;20.80;16.27;;;19.00;99.90;;;;;;5050489;28;20182;-68
2021/06/24 03:56:04;;;;;;;19.13;13.40;;;19.00;99.90;;;;;;5050442;28;20045;-68
2021/06/24 03:58:40;;;;;;;17.52;14.20;;;19.00;99.90;;;;;;5047376;28;20427;-68
2021/06/24 04:01:09;;;;;;;22.25;17.42;;;19.00;99.90;;;;;;5050158;28;20594;-68
2021/06/24 04:03:37;;;;;;;20.95;16.27;;;19.00;99.90;;;;;;5048424;28;20068;-68
2021/06/24 04:06:08;;;;;;;18.70;15.35;;;18.90;99.90;;;;;;5051006;28;20064;-68
2021/06/24 04:08:36;;;;;;;17.90;15.95;;;18.90;99.90;;;;;;5067340;28;20423;-68
2021/06/24 04:11:13;;;;;;;22.23;16.80;;;18.80;99.90;;;;;;5052068;28;20423;-68
2021/06/24 04:13:45;;;;;;;18.08;15.35;;;18.70;99.90;;;;;;5067241;28;20442;-68
2021/06/24 04:16:50;;;;;;;22.27;16.33;;;18.60;99.90;;;;;;5050914;28;20041;-68
2021/06/24 04:19:20;;;;;;;20.05;17.85;;;18.50;99.90;;;;;;5050120;28;20503;-68
2021/06/24 04:21:50;;;;;;;19.63;15.32;;;18.40;99.90;;;;;;5031715;28;20049;-68
2021/06/24 04:24:18;;;;;;;18.52;15.73;;;18.30;99.90;;;;;;5049007;28;20086;-68
2021/06/24 04:26:47;;;;;;;17.15;14.80;;;18.30;99.90;;;;;;5060531;28;20046;-68
2021/06/24 04:29:18;;;;;;;20.67;16.38;;;18.30;99.90;;;;;;5065578;28;20063;-68
2021/06/24 04:31:48;;;;;;;20.70;16.58;;;18.30;99.90;;;;;;5047570;28;20037;-68
2021/06/24 04:34:16;;;;;;;22.15;16.75;;;18.30;99.90;;;;;;5046585;28;20049;-68
2021/06/24 04:37:02;;;;;;;22.77;17.02;;;18.30;99.90;;;;;;5048996;28;20048;-68
2021/06/24 04:39:34;;;;;;;23.33;16.98;;;18.30;99.90;;;;;;5048584;28;20048;-68
2021/06/24 04:42:16;;;;;;;23.10;16.45;;;18.30;99.90;;;;;;5031362;28;20049;-68
2021/06/24 04:45:04;;;;;;;22.55;16.80;;;18.30;99.90;;;;;;5047489;28;20049;-68
2021/06/24 04:47:34;;;;;;;22.23;17.90;;;18.30;99.90;;;;;;5058867;28;20037;-68
2021/06/24 04:50:01;;;;;;;23.05;18.58;;;18.20;99.90;;;;;;5054493;28;20094;-68
2021/06/24 04:52:58;;;;;;;23.90;17.40;;;18.20;99.90;;;;;;5042641;28;20053;-68
2021/06/24 04:55:45;;;;;;;26.00;19.05;;;18.20;99.90;;;;;;5046904;28;20053;-68
2021/06/24 04:58:22;;;;;;;20.98;17.17;;;18.30;99.90;;;;;;5064212;28;20044;-68
2021/06/24 05:01:08;;;;;;;24.35;17.38;;;18.40;99.90;;;;;;5047029;28;20060;-68
2021/06/24 05:03:41;;;;;;;21.67;16.42;;;18.50;99.90;;;;;;5049494;28;20045;-68
2021/06/24 05:06:10;;;;;;;27.85;19.58;;;18.50;99.90;;;;;;5048041;28;20053;-68
2021/06/24 05:08:38;;;;;;;21.77;17.30;;;18.40;99.90;;;;;;5046244;28;20057;-68
2021/06/24 05:11:05;;;;;;;23.88;17.83;;;18.40;99.90;;;;;;5048481;28;20052;-68
2021/06/24 05:13:33;;;;;;;23.27;19.40;;;18.40;99.90;;;;;;5048293;28;20129;-67
2021/06/24 05:16:01;;;;;;;23.45;18.85;;;18.40;99.90;;;;;;5050318;28;20045;-67
2021/06/24 05:18:28;;;;;;;23.35;17.58;;;18.40;99.90;;;;;;5041577;28;20056;-67
2021/06/24 05:20:59;;;;;;;27.35;21.08;;;18.30;99.90;;;;;;5039254;28;20110;-67
2021/06/24 05:23:27;;;;;;;24.70;19.33;;;18.30;99.90;;;;;;5049639;28;20099;-68
2021/06/24 05:25:55;;;;;;;24.17;19.42;;;18.30;99.90;;;;;;5051088;28;20103;-67
2021/06/24 05:28:22;;;;;;;23.98;19.92;;;18.30;99.90;;;;;;5050694;28;20504;-67
2021/06/24 05:30:49;;;;;;;24.30;19.05;;;18.20;99.90;;;;;;5050893;28;20082;-67
2021/06/24 05:33:17;;;;;;;25.50;19.15;;;18.20;99.90;;;;;;5038474;28;20052;-67
2021/06/24 05:35:46;;;;;;;22.13;18.13;;;18.20;99.90;;;;;;5044391;28;20092;-68
2021/06/24 05:38:18;;;;;;;23.55;18.23;;;18.30;99.90;;;;;;5035248;28;20373;-67
2021/06/24 05:40:50;;;;;;;23.13;18.53;;;18.50;99.90;;;;;;5036887;28;20106;-67
2021/06/24 05:43:18;;;;;;;24.10;18.48;;;18.50;99.90;;;;;;5036851;28;20036;-67
2021/06/24 05:45:46;;;;;;;23.42;17.58;;;18.50;99.90;;;;;;5034986;28;20080;-67
2021/06/24 05:48:13;;;;;;;22.88;17.25;;;18.50;99.90;;;;;;5024612;28;20148;-67
2021/06/24 05:50:40;;;;;;;24.95;18.27;;;18.60;99.90;;;;;;5050512;28;20053;-67
2021/06/24 05:53:08;;;;;;;21.45;17.63;;;18.60;99.90;;;;;;5050533;28;20081;-67
2021/06/24 05:55:48;;;;;;;20.38;15.88;;;18.60;99.90;;;;;;5050759;28;20132;-67
2021/06/24 05:58:21;;;;;;;25.23;17.90;;;18.60;99.90;;;;;;5049087;28;20132;-67
2021/06/24 06:00:50;;;;;;;20.70;15.77;;;18.70;99.90;;;;;;5050920;28;20404;-67
2021/06/24 06:03:18;;;;;;;21.13;17.45;;;18.80;99.90;;;;;;5048576;28;20068;-67
2021/06/24 06:05:46;;;;;;;20.92;17.08;;;18.90;99.90;;;;;;5045571;28;20054;-67
2021/06/24 06:08:14;;;;;;;20.23;15.98;;;19.10;99.90;;;;;;5044855;28;20057;-67
2021/06/24 06:10:41;;;;;;;21.02;16.15;;;19.20;99.90;;;;;;5054087;28;20080;-67
2021/06/24 06:13:09;;;;;;;19.15;15.93;;;19.30;99.90;;;;;;5053332;28;20044;-67
2021/06/24 06:15:42;;;;;;;18.95;15.43;;;19.30;99.90;;;;;;5054321;28;20076;-67
2021/06/24 06:18:24;;;;;;;20.23;15.65;;;19.30;99.90;;;;;;5052027;28;20049;-68
2021/06/24 06:20:54;;;;;;;19.73;15.98;;;19.30;99.90;;;;;;5036982;28;20102;-68
2021/06/24 06:23:23;;;;;;;20.08;15.95;;;19.30;99.90;;;;;;5053690;28;20502;-68
2021/06/24 06:25:51;;;;;;;21.42;16.15;;;19.30;99.90;;;;;;5052784;28;20072;-68
2021/06/24 06:28:20;;;;;;;22.58;17.70;;;19.30;99.90;;;;;;5055050;28;20051;-68
2021/06/24 06:30:50;;;;;;;20.20;15.55;;;19.40;99.90;;;;;;5053812;28;20044;-68
2021/06/24 06:33:18;;;;;;;17.60;14.88;;;19.40;99.90;;;;;;5035656;28;20136;-68
2021/06/24 06:35:46;;;;;;;17.98;15.32;;;19.40;99.90;;;;;;5049523;28;20048;-68
2021/06/24 06:38:14;;;;;;;21.65;16.42;;;19.40;99.90;;;;;;5052543;28;20081;-68
2021/06/24 06:40:42;;;;;;;22.77;18.13;;;19.40;99.90;;;;;;5052842;28;20411;-68
2021/06/24 06:43:12;;;;;;;21.38;15.35;;;19.40;99.90;;;;;;5068582;28;20732;-68
2021/06/24 06:45:39;;;;;;;23.80;18.77;;;19.50;99.90;;;;;;5053510;28;20076;-68
2021/06/24 06:48:07;;;;;;;19.27;15.05;;;19.60;99.90;;;;;;5052101;28;20510;-69
2021/06/24 06:50:34;;;;;;;17.60;13.70;;;19.70;99.90;;;;;;5052041;28;20523;-68
2021/06/24 06:53:02;;;;;;;21.95;17.08;;;19.90;99.90;;;;;;5052290;28;20049;-69
2021/06/24 06:55:29;;;;;;;17.90;13.85;;;20.10;99.90;;;;;;5053031;28;20057;-68
2021/06/24 06:57:58;;;;;;;20.75;17.27;;;20.30;99.90;;;;;;5052904;28;20048;-68
2021/06/24 07:00:28;;;;;;;20.63;16.25;;;20.40;99.90;;;;;;5066445;28;20057;-68
2021/06/24 07:02:56;;;;;;;19.25;15.18;;;20.60;99.90;;;;;;5064702;28;20052;-68
2021/06/24 07:05:25;;;;;;;17.30;13.55;;;20.80;99.90;;;;;;5052214;28;20123;-68
2021/06/24 07:07:53;;;;;;;17.15;13.70;;;21.00;99.90;;;;;;5067314;28;20037;-68
2021/06/24 07:10:21;;;;;;;18.45;14.63;;;21.40;99.90;;;;;;5061659;28;20049;-68
2021/06/24 07:12:48;;;;;;;17.40;14.60;;;21.70;99.90;;;;;;5050383;28;20175;-68
2021/06/24 07:15:16;;;;;;;21.50;16.73;;;21.90;99.90;;;;;;5065512;28;20590;-68
2021/06/24 07:17:44;;;;;;;19.92;16.23;;;22.00;99.90;;;;;;5040902;28;20049;-68
2021/06/24 07:20:12;;;;;;;22.95;16.73;;;22.20;99.90;;;;;;5049391;28;20557;-68
2021/06/24 07:22:39;;;;;;;15.55;13.10;;;22.20;99.90;;;;;;5052242;28;20446;-68
2021/06/24 07:25:09;;;;;;;16.13;12.60;;;22.20;99.90;;;;;;5050589;28;20425;-68
2021/06/24 07:27:37;;;;;;;19.90;15.40;;;22.30;99.90;;;;;;5031871;28;20107;-68
2021/06/24 07:30:06;;;;;;;25.17;14.77;;;22.30;99.90;;;;;;5046130;28;20091;-68
2021/06/24 07:32:34;;;;;;;20.20;15.07;;;22.30;99.90;;;;;;5047138;28;20053;-68
2021/06/24 07:35:02;;;;;;;17.38;13.93;;;22.20;99.90;;;;;;5046711;28;20064;-68
2021/06/24 07:37:30;;;;;;;17.55;13.70;;;22.20;99.90;;;;;;5066447;28;20411;-68
2021/06/24 07:39:57;;;;;;;16.30;12.55;;;22.20;99.90;;;;;;5047802;28;20048;-68
2021/06/24 07:42:24;;;;;;;18.65;14.80;;;22.30;99.90;;;;;;5056499;28;20041;-67
2021/06/24 07:44:52;;;;;;;17.35;13.15;;;22.40;99.90;;;;;;5041798;28;20407;-67
2021/06/24 07:47:19;;;;;;;16.48;12.60;;;22.40;99.90;;;;;;5050012;28;20044;-68
2021/06/24 07:49:47;;;;;;;15.88;13.02;;;22.60;99.90;;;;;;5043672;28;20052;-68
2021/06/24 07:52:16;;;;;;;18.25;13.43;;;22.80;99.90;;;;;;5043995;28;20076;-67
2021/06/24 07:54:43;;;;;;;16.13;13.57;;;22.80;99.90;;;;;;5047343;28;20076;-68
2021/06/24 07:57:18;;;;;;;21.10;16.60;;;23.00;99.90;;;;;;5054226;28;20053;-67
2021/06/24 07:59:45;;;;;;;20.25;14.32;;;23.30;99.90;;;;;;5049948;28;20494;-68
2021/06/24 08:02:13;;;;;;;17.73;13.85;;;23.60;99.90;;;;;;5038650;28;20073;-68
2021/06/24 08:04:41;;;;;;;21.20;15.40;;;23.70;99.90;;;;;;5050705;28;20057;-69
2021/06/24 08:07:10;;;;;;;15.18;11.90;;;23.70;99.90;;;;;;5051460;28;20052;-67
2021/06/24 08:09:38;;;;;;;15.93;12.68;;;23.90;99.90;;;;;;5042035;28;20563;-67
2021/06/24 08:12:06;;;;;;;14.23;11.02;;;24.00;99.90;;;;;;5051077;28;20057;-67
2021/06/24 08:14:34;;;;;;;14.20;10.70;;;24.20;99.90;;;;;;5033591;28;20049;-67
2021/06/24 08:17:02;;;;;;;13.93;10.77;;;24.20;99.90;;;;;;5051477;28;20059;-67
2021/06/24 08:19:29;;;;;;;12.93;10.88;;;24.40;99.90;;;;;;5032701;28;20075;-67
2021/06/24 08:21:59;;;;;;;14.30;10.98;;;24.60;99.90;;;;;;5051792;28;20402;-67
2021/06/24 08:24:28;;;;;;;19.98;14.40;;;24.70;99.90;;;;;;5050558;28;20045;-68
2021/06/24 08:26:55;;;;;;;13.63;10.65;;;24.90;99.90;;;;;;5051065;28;20076;-68
2021/06/24 08:29:23;;;;;;;15.57;11.73;;;24.80;99.90;;;;;;5049602;28;20053;-68
2021/06/24 08:31:51;;;;;;;13.23;10.55;;;24.90;99.90;;;;;;5051486;28;20073;-68
2021/06/24 08:34:19;;;;;;;12.18;10.57;;;24.90;99.90;;;;;;5047228;28;20052;-68
2021/06/24 08:36:46;;;;;;;12.60;10.57;;;24.80;99.90;;;;;;5051230;28;20077;-68
2021/06/24 08:39:14;;;;;;;15.65;10.70;;;24.70;99.90;;;;;;5046714;28;20128;-68
2021/06/24 08:41:47;;;;;;;11.43;9.82;;;24.50;99.90;;;;;;5050194;28;20059;-68
2021/06/24 08:44:15;;;;;;;17.10;12.15;;;24.50;99.90;;;;;;5049773;28;20581;-68
2021/06/24 08:46:44;;;;;;;11.13;9.43;;;24.30;99.90;;;;;;5049690;28;20102;-68
2021/06/24 08:49:14;;;;;;;12.00;9.70;;;24.20;99.90;;;;;;5051054;28;20063;-68
2021/06/24 08:51:41;;;;;;;13.95;10.75;;;24.30;99.90;;;;;;5049847;28;20083;-68
2021/06/24 08:54:09;;;;;;;14.48;11.15;;;24.30;99.90;;;;;;5049996;28;20057;-68
2021/06/24 08:56:36;;;;;;;15.50;11.07;;;24.20;99.90;;;;;;5046664;28;20091;-68
2021/06/24 08:59:04;;;;;;;14.15;11.30;;;24.30;99.90;;;;;;5049658;28;20044;-67
2021/06/24 09:01:52;;;;;;;13.90;10.43;;;24.10;99.90;;;;;;5047872;28;20460;-68
2021/06/24 09:04:26;;;;;;;14.63;10.73;;;24.00;99.90;;;;;;5047700;28;20464;-68
2021/06/24 09:07:11;;;;;;;14.88;12.85;;;23.80;99.90;;;;;;5045071;28;20399;-67
2021/06/24 09:09:55;;;;;;;19.88;13.88;;;23.30;99.90;;;;;;5044311;28;20052;-67
2021/06/24 09:12:24;;;;;;;15.43;12.93;;;22.80;99.90;;;;;;5038054;28;20495;-67
2021/06/24 09:14:55;;;;;;;15.85;12.40;;;22.70;99.90;;;;;;5049299;28;20392;-67
2021/06/24 09:17:42;;;;;;;16.80;13.65;;;22.60;99.90;;;;;;5048476;28;20471;-67
2021/06/24 09:20:19;;;;;;;16.83;13.23;;;22.40;99.90;;;;;;5050050;28;20407;-67
2021/06/24 09:23:25;;;;;;;16.23;11.73;;;22.20;99.90;;;;;;5049742;28;20451;-67
2021/06/24 09:26:15;;;;;;;15.82;12.55;;;22.30;99.90;;;;;;5004415;28;20128;-67
2021/06/24 09:28:52;;;;;;;16.45;12.15;;;22.30;99.90;;;;;;5007242;28;20444;-67
2021/06/24 09:31:42;;;;;;;15.60;12.65;;;22.40;99.90;;;;;;4991581;28;20046;-67
2021/06/24 09:34:13;;;;;;;16.27;13.23;;;22.60;99.90;;;;;;5007169;28;20088;-67
2021/06/24 09:36:42;;;;;;;15.82;12.70;;;22.70;99.90;;;;;;4996763;28;20077;-67
2021/06/24 09:39:11;;;;;;;15.60;12.43;;;22.80;99.90;;;;;;5008349;28;20089;-67
2021/06/24 09:42:02;;;;;;;17.33;12.57;;;23.00;99.90;;;;;;4994039;28;20121;-67
2021/06/24 09:44:31;;;;;;;15.98;12.95;;;23.10;99.90;;;;;;5009600;28;20069;-67
2021/06/24 09:46:59;;;;;;;18.02;14.48;;;23.40;99.90;;;;;;5011697;28;20054;-67
2021/06/24 09:49:35;;;;;;;17.58;14.77;;;23.70;99.90;;;;;;4993831;28;20080;-67
2021/06/24 09:52:04;;;;;;;17.85;12.82;;;23.60;99.90;;;;;;5011939;28;20136;-67
2021/06/24 09:54:43;;;;;;;18.00;14.13;;;23.90;99.90;;;;;;5011538;28;20053;-67
2021/06/24 09:57:24;;;;;;;19.38;14.88;;;24.10;99.90;;;;;;5038452;28;20099;-67
2021/06/24 09:59:54;;;;;;;16.42;12.70;;;24.20;99.90;;;;;;5054253;28;20049;-67
2021/06/24 10:02:21;;;;;;;16.90;13.95;;;24.10;99.90;;;;;;5051721;28;20084;-68
2021/06/24 10:04:49;;;;;;;18.83;14.23;;;24.10;99.90;;;;;;5054259;28;20399;-67
2021/06/24 10:07:21;;;;;;;15.90;13.90;;;24.10;99.90;;;;;;5053276;28;20127;-67
2021/06/24 10:09:48;;;;;;;15.10;12.90;;;24.10;99.90;;;;;;5052546;28;20045;-68
2021/06/24 10:12:20;;;;;;;15.13;12.07;;;23.90;99.90;;;;;;5054197;28;20460;-68
2021/06/24 10:14:48;;;;;;;14.82;12.65;;;24.00;99.90;;;;;;5070556;28;20068;-68
2021/06/24 10:17:15;;;;;;;16.90;13.32;;;23.80;99.90;;;;;;5066778;28;20510;-68
2021/06/24 10:19:44;;;;;;;14.93;12.02;;;23.90;99.90;;;;;;5054788;28;20099;-66
2021/06/24 10:22:19;;;;;;;14.00;10.65;;;24.10;99.90;;;;;;5052377;28;20132;-68
2021/06/24 10:25:03;;;;;;;14.23;11.50;;;24.50;99.90;;;;;;5047464;28;20076;-68
2021/06/24 10:27:38;;;;;;;14.30;10.82;;;24.80;99.90;;;;;;5050448;28;20085;-68
2021/06/24 10:30:14;;;;;;;14.02;11.45;;;24.70;99.90;;;;;;5048699;28;20100;-68
2021/06/24 10:33:10;;;;;;;14.13;12.18;;;24.40;99.90;;;;;;5052748;28;20408;-68
2021/06/24 10:35:40;;;;;;;14.77;11.05;;;23.90;99.90;;;;;;5052437;28;20053;-68
2021/06/24 10:38:09;;;;;;;18.13;13.73;;;24.10;99.90;;;;;;5050863;28;20843;-67
2021/06/24 10:40:45;;;;;;;16.10;12.05;;;23.90;99.90;;;;;;5050224;28;20879;-69
2021/06/24 10:43:13;;;;;;;14.40;12.90;;;24.00;99.90;;;;;;5060233;28;20045;-68
2021/06/24 10:45:42;;;;;;;13.32;10.30;;;24.20;99.90;;;;;;5052451;28;20511;-68
2021/06/24 10:48:27;;;;;;;12.60;10.68;;;24.50;99.90;;;;;;5049084;28;20136;-68
2021/06/24 10:51:00;;;;;;;13.75;11.15;;;24.40;99.90;;;;;;5049053;28;20076;-68
2021/06/24 10:53:28;;;;;;;16.17;13.32;;;24.20;99.90;;;;;;5051729;28;20060;-68
2021/06/24 10:55:55;;;;;;;14.48;11.52;;;23.80;99.90;;;;;;5068583;28;20045;-68
2021/06/24 10:58:27;;;;;;;17.60;13.57;;;23.70;99.90;;;;;;5067865;28;20135;-67
2021/06/24 11:00:59;;;;;;;16.10;12.27;;;23.30;99.90;;;;;;5047392;28;20526;-68
2021/06/24 11:03:33;;;;;;;15.43;12.60;;;23.20;99.90;;;;;;5050538;28;20041;-68
2021/06/24 11:06:19;;;;;;;17.08;12.73;;;23.30;99.90;;;;;;5050696;28;20045;-68
2021/06/24 11:08:47;;;;;;;14.57;12.85;;;23.60;99.90;;;;;;5052947;28;20084;-68
2021/06/24 11:11:17;;;;;;;16.77;12.93;;;24.00;99.90;;;;;;5053219;28;20163;-68
2021/06/24 11:13:47;;;;;;;16.08;11.23;;;24.20;99.90;;;;;;5051780;28;20131;-68
2021/06/24 11:16:16;;;;;;;14.75;10.18;;;24.60;99.90;;;;;;5046120;28;20112;-68
2021/06/24 11:18:47;;;;;;;13.32;11.32;;;24.80;99.90;;;;;;5068863;28;20453;-68
2021/06/24 11:21:23;;;;;;;13.77;10.32;;;25.10;99.90;;;;;;5059020;28;20102;-68
2021/06/24 11:24:12;;;;;;;12.57;10.73;;;25.50;99.90;;;;;;5044584;28;20048;-68
2021/06/24 11:26:46;;;;;;;14.35;11.48;;;25.20;99.90;;;;;;5046964;28;20072;-68
2021/06/24 11:29:19;;;;;;;15.35;11.52;;;25.10;99.90;;;;;;5051675;28;20057;-68
2021/06/24 11:32:00;;;;;;;12.55;10.43;;;25.20;99.90;;;;;;5052355;28;20056;-68
2021/06/24 11:34:57;;;;;;;10.43;8.90;;;25.40;99.90;;;;;;5050463;28;20052;-69
2021/06/24 11:37:31;;;;;;;13.00;10.35;;;25.70;99.90;;;;;;5047800;28;20650;-68
2021/06/24 11:40:06;;;;;;;12.95;10.18;;;25.80;99.90;;;;;;5048582;28;20037;-68
2021/06/24 11:42:42;;;;;;;13.90;10.20;;;25.50;99.90;;;;;;5067400;28;20136;-68
2021/06/24 11:45:14;;;;;;;12.45;9.77;;;25.30;99.90;;;;;;5064143;28;20091;-68
2021/06/24 11:47:45;;;;;;;13.52;9.77;;;25.40;99.90;;;;;;5038600;28;20408;-68
2021/06/24 12:04:03;;;;;;;9.20;7.90;;;27.00;99.90;;;;;;5051840;28;20080;-69
2021/06/24 12:06:47;;;;;;;10.88;9.30;;;27.00;99.90;;;;;;5051302;28;20404;-68
2021/06/24 12:09:21;;;;;;;11.90;9.63;;;27.00;99.90;;;;;;5048228;28;20408;-68
2021/06/24 12:11:53;;;;;;;12.05;10.20;;;27.00;99.90;;;;;;5049836;28;20060;-67
2021/06/24 12:14:28;;;;;;;9.77;8.45;;;27.00;99.90;;;;;;5048710;28;20049;-67
2021/06/24 12:17:26;;;;;;;12.18;9.40;;;26.90;99.90;;;;;;5050958;28;20057;-67
2021/06/24 12:20:04;;;;;;;9.45;7.82;;;27.30;99.90;;;;;;5046526;28;20154;-67
2021/06/24 12:22:31;;;;;;;11.00;7.95;;;27.60;99.90;;;;;;5051946;28;20680;-67
2021/06/24 12:25:05;;;;;;;;;;;27.30;99.90;;;;;;5034426;28;20041;-67
2021/06/24 12:27:36;;;;;;;11.35;6.97;;;27.20;99.90;;;;;;5050234;28;19921;-67
2021/06/24 12:30:14;;;;;;;9.88;8.38;;;27.00;99.90;;;;;;5051275;28;20057;-67
2021/06/24 12:32:51;;;;;;;8.93;6.60;;;27.00;99.90;;;;;;5051648;28;20139;-68
2021/06/24 12:35:24;;;;;;;8.70;7.03;;;26.90;99.90;;;;;;5049220;28;20057;-67
2021/06/24 12:37:53;;;;;;;8.70;7.80;;;27.00;99.90;;;;;;5046814;28;20076;-68
2021/06/24 12:40:22;;;;;;;8.45;6.65;;;26.80;99.90;;;;;;5043714;28;20454;-68
2021/06/24 12:42:56;;;;;;;13.43;8.15;;;26.50;99.90;;;;;;5066408;28;20064;-68
2021/06/24 12:45:44;;;;;;;9.95;8.20;;;26.60;99.90;;;;;;5050001;28;20049;-68
2021/06/24 12:48:38;;;;;;;10.07;7.97;;;26.40;99.90;;;;;;5044845;28;20064;-69
2021/06/24 12:51:23;;;;;;;8.52;7.47;;;26.60;99.90;;;;;;5040013;28;20419;-68
2021/06/24 12:53:55;;;;;;;7.18;6.47;;;26.80;99.90;;;;;;5046765;28;20048;-69
2021/06/24 12:56:25;;;;;;;9.43;7.80;;;26.80;99.90;;;;;;5065651;28;20107;-69
2021/06/24 12:58:54;;;;;;;10.07;8.07;;;26.70;99.90;;;;;;5050332;28;20049;-69
2021/06/24 13:01:22;;;;;;;9.20;8.20;;;26.90;99.90;;;;;;5050254;28;20117;-68
2021/06/24 13:03:58;;;;;;;10.52;8.38;;;26.60;99.90;;;;;;5048837;28;20037;-66
2021/06/24 13:06:27;;;;;;;9.73;7.38;;;26.90;99.90;;;;;;5038608;28;20492;-67